Woodville, AL (35776)

7:15 PM CST on December 08, 2016 (GMT -0600)
High Bluff | | Change Station

Elev 1532 ft 34.67 °N, 86.37 °W | Updated 20 seconds ago

Clear
Clear
32.9 °F
Feels Like 29 °F
N
4.0
Wind Variable Wind from North
Gusts 4.9 mph

Today
High -- | Low -- °F
--% Chance of Precip.
Yesterday
High -- | Low -- °F
Precip. -- in
Pressure 30.42 in
Visibility 10.0 miles
Clouds Clear
Windchill 29 °F
Dew Point 16 °F
Humidity 50%
Rainfall 0.00 in
Snow Depth Not available.
6:40 AM 4:34 PM
Waxing Gibbous, 68% visible
METAR K4A6 090055Z AUTO 00000KT 10SM CLR 02/M06 A3042 RMK AO2
Pressure 30.42 in
Visibility 10.0 miles
Clouds Clear
Windchill 29 °F
Dew Point 16 °F
Humidity 50%
Rainfall 0.00 in
Snow Depth Not available.
6:40 AM 4:34 PM
Waxing Gibbous, 68% visible
METAR K4A6 090055Z AUTO 00000KT 10SM CLR 02/M06 A3042 RMK AO2

10-Day Weather Forecast

Almanac

Astronomy

Dec. 08, 2016 Rise Set
Actual Time
Civil Twilight
Nautical Twilight
Astronomical Twilight
Moon
Length of Visible Light
Length of Day
Tomorrow will be .
, % of the Moon is Illuminated

Today's Extremes

State Highs State Lows

Community

WunderPhotos

Upload Photos

1,956,277 photos uploaded!

WunderBlog® & News

Nearby

Air Quality

  Air Quality AQ Index Pollutant
Not available.

Snow Depth

Station Depth Elevation

Earthquake Activity

City Distance Mag. Time & Date
Minimum magnitude displayed is 2.5.

Coastal Water Temperatures

Place Temperature

Stations

Nearby Weather Stations

Station Location Temp. Windchill Dew Point Humidity Wind Precip. Elev Updated Type
                   

Watches & Warnings

There are currently no watches in effect.